Аэропорт: Ширак. Гюмри

ICAO: UDSG

METAR:
2019-12-12 12:00:00
UDSG 121200Z 26003KT 7000 OVC013 M01/M04 Q1017 R02/CLRD70 NOSIG
METAR:
2019-12-12 11:03:00
TAF UDSG 121103Z 1212/1312 24008KT 3000 BR BKN020 TEMPO 1212/1222 0800 SN FZFG VV005